Time;durP1;ratioP1;P1;durP2;ratioP2;P2;SDS_P1;SDS_P2;PMS_P1;PMS_P2;Temp;Humidity;BMP_temperature;BMP_pressure;BME280_temperature;BME280_humidity;BME280_pressure;Samples;Min_cycle;Max_cycle;Signal;HPM_P1;HPM_P2
2022/02/13 00:00:10;;;;;;;4.20;2.40;;;;;;;23.38;31.67;102896.84;104615;1308;62007;-83
2022/02/13 00:02:38;;;;;;;4.80;2.70;;;;;;;23.38;31.77;102903.15;104441;1308;62057;-82
2022/02/13 00:05:04;;;;;;;4.40;2.60;;;;;;;23.38;31.81;102904.23;104469;1308;72835;-81
2022/02/13 00:07:33;;;;;;;4.50;2.90;;;;;;;23.37;31.70;102900.48;104544;1307;62076;-86
2022/02/13 00:10:08;;;;;;;4.50;2.70;;;;;;;23.38;31.66;102902.61;104653;1308;62105;-80
2022/02/13 00:12:37;;;;;;;5.40;2.60;;;;;;;23.37;31.77;102899.02;104541;1307;62082;-86
2022/02/13 00:15:12;;;;;;;5.00;2.60;;;;;;;23.38;31.75;102899.57;104499;1308;72909;-81
2022/02/13 00:17:37;;;;;;;5.10;2.60;;;;;;;23.37;31.73;102904.06;104478;1308;76627;-82
2022/02/13 00:20:20;;;;;;;4.50;2.70;;;;;;;23.37;31.85;102901.70;104645;1306;62125;-83
2022/02/13 00:22:59;;;;;;;4.80;2.70;;;;;;;23.38;31.78;102901.19;104632;1308;61938;-81
2022/02/13 00:25:30;;;;;;;3.70;2.40;;;;;;;23.38;31.74;102906.37;104427;1308;73526;-83
2022/02/13 00:27:56;;;;;;;4.60;2.70;;;;;;;23.38;31.74;102904.23;104513;1308;76707;-84
2022/02/13 00:30:30;;;;;;;4.10;2.60;;;;;;;23.38;31.87;102907.27;104521;1308;62148;-82
2022/02/13 00:33:05;;;;;;;4.40;2.60;;;;;;;23.38;31.82;102909.77;104653;1306;62227;-82
2022/02/13 00:35:42;;;;;;;4.00;2.50;;;;;;;23.39;31.59;102904.53;104338;1308;71596;-81
2022/02/13 00:38:14;;;;;;;4.90;2.80;;;;;;;23.38;31.63;102904.20;104521;1308;75561;-86
2022/02/13 00:40:40;;;;;;;3.80;2.40;;;;;;;23.38;31.66;102897.92;104691;1306;62185;-79
2022/02/13 00:43:06;;;;;;;3.80;2.40;;;;;;;23.38;31.71;102893.42;104556;1308;62120;-84
2022/02/13 00:45:32;;;;;;;5.00;2.80;;;;;;;23.38;31.86;102894.16;104494;1308;62001;-81
2022/02/13 00:48:01;;;;;;;4.00;2.40;;;;;;;23.38;31.80;102890.38;104504;1308;62095;-83
2022/02/13 00:50:49;;;;;;;4.20;2.80;;;;;;;23.38;31.74;102885.52;104653;1308;61971;-81
2022/02/13 00:53:17;;;;;;;3.30;2.30;;;;;;;23.38;31.74;102887.13;104612;1307;63022;-81
2022/02/13 00:55:45;;;;;;;4.20;2.60;;;;;;;23.38;31.70;102889.81;104622;1308;73087;-85
2022/02/13 00:58:20;;;;;;;3.90;2.40;;;;;;;23.38;31.69;102895.39;104512;1306;75064;-82
2022/02/13 01:00:49;;;;;;;3.90;2.50;;;;;;;23.38;31.75;102891.28;104645;1308;62069;-81
2022/02/13 01:03:18;;;;;;;4.80;2.70;;;;;;;23.38;31.49;102885.71;104490;1307;61991;-81
2022/02/13 01:05:46;;;;;;;4.80;2.70;;;;;;;23.37;31.50;102879.09;104674;1305;72648;-82
2022/02/13 01:08:19;;;;;;;3.90;2.30;;;;;;;23.38;31.56;102876.57;104536;1308;75455;-85
2022/02/13 01:10:54;;;;;;;4.20;2.70;;;;;;;23.38;31.75;102872.95;104471;1308;62202;-82
2022/02/13 01:13:27;;;;;;;4.60;2.70;;;;;;;23.38;31.67;102873.15;104657;1307;62006;-82
2022/02/13 01:16:12;;;;;;;4.40;2.50;;;;;;;23.37;31.67;102870.27;104524;1308;72514;-82
2022/02/13 01:18:40;;;;;;;3.70;2.40;;;;;;;23.38;31.56;102872.23;104651;1308;76620;-81
2022/02/13 01:21:08;;;;;;;4.40;2.60;;;;;;;23.38;31.74;102868.30;104622;1308;61320;-82
2022/02/13 01:23:43;;;;;;;4.80;2.60;;;;;;;23.37;31.57;102862.54;104633;1307;62075;-82
2022/02/13 01:26:10;;;;;;;4.50;2.50;;;;;;;23.37;31.77;102858.79;104638;1307;73894;-83
2022/02/13 01:28:39;;;;;;;3.30;2.20;;;;;;;23.37;31.68;102856.64;104647;1306;76054;-84
2022/02/13 01:31:09;;;;;;;3.80;2.40;;;;;;;23.37;31.57;102858.25;104540;1308;62033;-87
2022/02/13 01:33:43;;;;;;;;;;;;;;;23.37;31.64;102854.83;104527;1308;61961;-80
2022/02/13 01:36:29;;;;;;;3.70;2.20;;;;;;;23.36;31.66;102848.80;104720;1306;73643;-83
2022/02/13 01:38:55;;;;;;;4.00;2.50;;;;;;;23.36;31.72;102845.92;104696;1306;75955;-84
2022/02/13 01:41:24;;;;;;;3.70;2.30;;;;;;;23.36;31.65;102846.96;104524;1307;62037;-82
2022/02/13 01:43:58;;;;;;;3.90;2.50;;;;;;;23.36;31.56;102841.80;104536;1306;62063;-84
2022/02/13 01:46:28;;;;;;;4.80;2.40;;;;;;;23.36;31.67;102840.15;104623;1307;72970;-81
2022/02/13 01:49:18;;;;;;;4.20;2.30;;;;;;;23.36;31.70;102845.02;104462;1306;74407;-82
2022/02/13 01:51:52;;;;;;;3.00;2.00;;;;;;;23.36;31.62;102839.27;104350;1311;62821;-86
2022/02/13 01:54:31;;;;;;;4.50;2.20;;;;;;;23.36;31.64;102831.35;104349;1311;62262;-83
2022/02/13 01:57:02;;;;;;;4.00;2.10;;;;;;;23.36;31.57;102833.50;104285;1311;73954;-82
2022/02/13 01:59:28;;;;;;;3.50;2.10;;;;;;;23.36;31.77;102828.13;104305;1311;75503;-85
2022/02/13 02:01:56;;;;;;;4.30;2.30;;;;;;;23.36;31.64;102829.90;104354;1311;62005;-84
2022/02/13 02:04:32;;;;;;;4.10;2.40;;;;;;;23.36;31.86;102829.01;104280;1311;62089;-78
2022/02/13 02:07:02;;;;;;;4.30;2.40;;;;;;;23.36;31.84;102832.08;104307;1311;72757;-81
2022/02/13 02:09:31;;;;;;;4.20;2.30;;;;;;;23.36;31.60;102823.30;104271;1313;76609;-84
2022/02/13 02:12:07;;;;;;;4.10;2.30;;;;;;;23.36;31.57;102824.88;104352;1311;61931;-84
2022/02/13 02:14:53;;;;;;;3.30;2.20;;;;;;;23.36;31.67;102826.68;104361;1311;62759;-81
2022/02/13 02:17:24;;;;;;;4.60;2.50;;;;;;;23.36;31.70;102825.98;104338;1311;72818;-85
2022/02/13 02:20:14;;;;;;;3.90;2.10;;;;;;;23.36;31.69;102822.20;104335;1311;75644;-85
2022/02/13 02:23:05;;;;;;;4.30;2.20;;;;;;;23.36;31.45;102824.52;104325;1311;62209;-83
2022/02/13 02:25:40;;;;;;;3.60;2.20;;;;;;;23.36;31.65;102822.76;104312;1311;62004;-85
2022/02/13 02:28:17;;;;;;;4.10;2.40;;;;;;;23.36;31.51;102817.86;104333;1309;73912;-87
2022/02/13 02:30:52;;;;;;;4.30;2.10;;;;;;;23.37;31.61;102820.55;104688;1306;76568;-82
2022/02/13 02:33:37;;;;;;;4.10;2.30;;;;;;;23.37;31.68;102823.05;104646;1307;62174;-83
2022/02/13 02:36:18;;;;;;;3.80;2.20;;;;;;;23.36;31.80;102827.92;104646;1306;62630;-89
2022/02/13 02:38:57;;;;;;;4.00;2.20;;;;;;;23.36;31.77;102826.50;104499;1307;73832;-80
2022/02/13 02:41:49;;;;;;;3.60;2.30;;;;;;;23.37;31.68;102828.63;104523;1306;76565;-83
2022/02/13 02:44:14;;;;;;;4.40;2.30;;;;;;;23.37;31.71;102830.97;104536;1307;62040;-82
2022/02/13 02:46:44;;;;;;;3.70;2.20;;;;;;;23.37;31.56;102828.11;104662;1306;62072;-82
2022/02/13 02:49:21;;;;;;;3.20;2.00;;;;;;;23.37;31.63;102825.23;104532;1307;72896;-85
2022/02/13 02:52:16;;;;;;;3.70;2.20;;;;;;;23.36;31.67;102820.55;104680;1306;75625;-81
2022/02/13 02:54:54;;;;;;;;;;;;;;;23.36;31.66;102821.49;104574;1307;62135;-87
2022/02/13 02:57:23;;;;;;;3.60;2.40;;;;;;;23.34;31.52;102826.10;104670;1306;61964;-86
2022/02/13 03:00:01;;;;;;;4.20;2.10;;;;;;;23.34;31.66;102819.95;104608;1306;73788;-82
2022/02/13 03:02:35;;;;;;;3.80;2.10;;;;;;;23.34;31.67;102817.61;104539;1307;76837;-84
2022/02/13 03:05:16;;;;;;;4.10;2.50;;;;;;;23.35;31.75;102823.35;104690;1306;61951;-86
2022/02/13 03:07:45;;;;;;;4.00;2.00;;;;;;;23.35;31.53;102822.08;104501;1306;61997;-85
2022/02/13 03:10:35;;;;;;;4.40;2.40;;;;;;;23.35;31.61;102821.91;104639;1307;72946;-86
2022/02/13 03:13:23;;;;;;;3.10;2.10;;;;;;;23.34;31.71;102825.86;104529;1307;75598;-83
2022/02/13 03:15:55;;;;;;;3.60;2.30;;;;;;;23.34;31.63;102819.58;104687;1306;62050;-82
2022/02/13 03:18:32;;;;;;;3.60;2.20;;;;;;;23.35;31.57;102821.01;104637;1306;62401;-84
2022/02/13 03:21:01;;;;;;;4.60;2.20;;;;;;;23.35;31.67;102818.48;104649;1306;73366;-88
2022/02/13 03:23:41;;;;;;;4.50;2.30;;;;;;;23.35;31.65;102818.09;104511;1306;75672;-82
2022/02/13 03:26:09;;;;;;;;;;;;;;;23.35;31.67;102816.50;104577;1307;62116;-81
2022/02/13 03:28:41;;;;;;;3.60;2.30;;;;;;;23.33;31.46;102816.77;104672;1306;62061;-85
2022/02/13 03:31:18;;;;;;;3.80;2.30;;;;;;;23.33;31.50;102816.58;104567;1307;73137;-82
2022/02/13 03:33:49;;;;;;;3.90;2.40;;;;;;;23.33;31.71;102814.25;104650;1306;76018;-83
2022/02/13 03:36:19;;;;;;;3.30;2.10;;;;;;;23.33;31.59;102813.88;104616;1307;61998;-84
2022/02/13 03:38:57;;;;;;;;;;;;;;;;;;;;;
2022/02/13 03:41:34;;;;;;;4.10;2.30;;;;;;;23.34;31.57;102819.09;104551;1306;72861;-82
2022/02/13 03:44:22;;;;;;;3.40;2.00;;;;;;;23.33;31.74;102821.80;104542;1306;76641;-82
2022/02/13 03:46:58;;;;;;;3.80;2.20;;;;;;;23.34;31.47;102821.41;104550;1307;62620;-81
2022/02/13 03:49:34;;;;;;;3.40;2.20;;;;;;;23.34;31.58;102821.02;104646;1306;62088;-82
2022/02/13 03:52:09;;;;;;;3.90;2.30;;;;;;;23.34;31.55;102821.56;104685;1306;72874;-79
2022/02/13 03:55:04;;;;;;;3.70;2.20;;;;;;;23.34;31.53;102823.19;104555;1306;74446;-81
2022/02/13 03:57:48;;;;;;;3.90;2.30;;;;;;;23.34;31.54;102818.88;104537;1306;62134;-82
2022/02/13 04:00:14;;;;;;;4.60;2.10;;;;;;;23.34;31.56;102819.04;104633;1306;62073;-81
2022/02/13 04:02:55;;;;;;;;;;;;;;;;;;;;;
2022/02/13 04:05:26;;;;;;;3.40;2.20;;;;;;;23.34;31.48;102806.47;104604;1306;75738;-83
2022/02/13 04:07:55;;;;;;;4.10;2.20;;;;;;;23.34;31.40;102811.70;104641;1306;62218;-84
2022/02/13 04:10:35;;;;;;;3.70;2.20;;;;;;;23.34;31.73;102813.30;104625;1306;61853;-82
2022/02/13 04:13:07;;;;;;;4.20;2.30;;;;;;;23.34;31.51;102810.27;104424;1306;71682;-83
2022/02/13 04:15:42;;;;;;;3.70;2.10;;;;;;;23.34;31.42;102814.57;104546;1307;75797;-81
2022/02/13 04:18:23;;;;;;;4.20;2.40;;;;;;;23.34;31.27;102818.51;104552;1307;62062;-81
2022/02/13 04:21:03;;;;;;;4.90;2.10;;;;;;;23.34;31.42;102817.64;104534;1306;62138;-85
2022/02/13 04:23:42;;;;;;;3.60;2.30;;;;;;;23.34;31.50;102812.05;104631;1305;72922;-80
2022/02/13 04:26:27;;;;;;;3.60;2.20;;;;;;;23.33;31.58;102812.98;104606;1306;76726;-86
2022/02/13 04:28:55;;;;;;;3.60;2.40;;;;;;;23.33;31.40;102814.63;104528;1307;61998;-84
2022/02/13 04:31:41;;;;;;;3.80;2.20;;;;;;;23.33;31.37;102811.20;104518;1308;62150;-81
2022/02/13 04:34:19;;;;;;;3.70;2.20;;;;;;;23.33;31.47;102815.70;104653;1306;73023;-83
2022/02/13 04:36:51;;;;;;;3.70;2.10;;;;;;;23.33;31.40;102813.16;104546;1306;74537;-88
2022/02/13 04:39:33;;;;;;;4.20;2.40;;;;;;;23.33;31.30;102812.29;104663;1306;62043;-86
2022/02/13 04:42:10;;;;;;;3.40;2.00;;;;;;;23.33;31.56;102812.48;104688;1306;61993;-85
2022/02/13 04:44:39;;;;;;;3.80;2.20;;;;;;;23.33;31.32;102812.45;104653;1306;73754;-85
2022/02/13 04:47:20;;;;;;;3.10;2.00;;;;;;;23.33;31.26;102815.14;104478;1307;75688;-85
2022/02/13 04:50:08;;;;;;;3.60;2.20;;;;;;;23.33;31.48;102812.10;104560;1306;61952;-83
2022/02/13 04:52:36;;;;;;;4.10;2.40;;;;;;;23.33;31.46;102809.23;104308;1311;61781;-82
2022/02/13 04:55:28;;;;;;;3.60;2.30;;;;;;;23.33;31.38;102813.16;104211;1311;73773;-87
2022/02/13 04:58:03;;;;;;;3.80;2.20;;;;;;;23.33;31.54;102812.30;103904;1316;76205;-85
2022/02/13 05:00:29;;;;;;;3.70;2.30;;;;;;;23.33;31.26;102813.91;103962;1317;62409;-81
2022/02/13 05:03:00;;;;;;;4.20;2.40;;;;;;;23.33;31.29;102810.70;103858;1317;62203;-81
2022/02/13 05:05:49;;;;;;;6.10;2.20;;;;;;;23.32;31.23;102811.23;103711;1317;73905;-84
2022/02/13 05:08:24;;;;;;;3.30;2.10;;;;;;;23.32;31.46;102810.15;103698;1317;75671;-83
2022/02/13 05:11:02;;;;;;;;;;;;;;;;;;;;;
2022/02/13 05:13:42;;;;;;;;;;;;;;;;;;;;;
2022/02/13 05:16:14;;;;;;;3.70;2.20;;;;;;;23.32;31.46;102812.68;103607;1319;73941;-81
2022/02/13 05:19:03;;;;;;;4.30;2.30;;;;;;;23.32;31.42;102819.52;103432;1317;76310;-84
2022/02/13 05:21:45;;;;;;;4.50;2.20;;;;;;;23.32;31.50;102821.14;103712;1317;62518;-84
2022/02/13 05:24:22;;;;;;;3.10;2.10;;;;;;;23.33;31.28;102820.20;103912;1316;61987;-83
2022/02/13 05:27:00;;;;;;;4.10;2.20;;;;;;;23.32;31.21;102818.25;103345;1319;74035;-84
2022/02/13 05:29:36;;;;;;;4.50;2.20;;;;;;;23.33;31.20;102825.59;103893;1317;75530;-83
2022/02/13 05:32:05;;;;;;;4.10;2.20;;;;;;;23.33;31.35;102822.00;103885;1317;62147;-78
2022/02/13 05:34:45;;;;;;;4.50;2.40;;;;;;;23.32;31.38;102820.23;103791;1311;63221;-82
2022/02/13 05:37:17;;;;;;;3.60;2.30;;;;;;;23.32;31.44;102827.77;104253;1311;73201;-82
2022/02/13 05:40:10;;;;;;;3.80;2.40;;;;;;;23.32;31.27;102831.17;104288;1311;76765;-84
2022/02/13 05:42:45;;;;;;;3.20;2.00;;;;;;;23.32;31.41;102834.05;104284;1311;62089;-83
2022/02/13 05:45:34;;;;;;;3.70;2.40;;;;;;;23.33;31.30;102838.17;104363;1311;62952;-84
2022/02/13 05:48:18;;;;;;;3.80;2.30;;;;;;;23.33;31.29;102835.84;104345;1311;73493;-84
2022/02/13 05:50:51;;;;;;;3.80;2.30;;;;;;;23.33;31.24;102843.21;104289;1311;75575;-82
2022/02/13 05:53:25;;;;;;;4.30;2.30;;;;;;;23.33;31.33;102838.51;104386;1311;62114;-80
2022/02/13 05:56:08;;;;;;;3.60;2.20;;;;;;;23.34;31.40;102841.89;104331;1311;62261;-83
2022/02/13 05:58:59;;;;;;;3.30;2.30;;;;;;;23.34;31.25;102842.06;104303;1313;72868;-81
2022/02/13 06:01:34;;;;;;;3.80;2.30;;;;;;;23.33;31.25;102838.31;104227;1313;78180;-83
2022/02/13 06:04:13;;;;;;;3.70;2.30;;;;;;;23.34;31.15;102842.78;104319;1311;62091;-84
2022/02/13 06:06:44;;;;;;;3.80;2.40;;;;;;;23.34;31.19;102842.40;104293;1311;63216;-81
2022/02/13 06:09:50;;;;;;;3.60;2.40;;;;;;;23.34;31.25;102844.02;104269;1311;74204;-82
2022/02/13 06:12:19;;;;;;;3.90;2.30;;;;;;;23.35;31.14;102843.27;104290;1311;75456;-82
2022/02/13 06:15:14;;;;;;;3.60;2.30;;;;;;;23.35;31.14;102838.77;104276;1311;62104;-85
2022/02/13 06:17:48;;;;;;;4.40;2.20;;;;;;;23.34;31.16;102842.04;104115;1311;62067;-80
2022/02/13 06:20:36;;;;;;;;;;;;;;;;;;;;;
2022/02/13 06:23:08;;;;;;;4.70;2.30;;;;;;;23.35;31.21;102842.70;104295;1311;76773;-88
2022/02/13 06:25:59;;;;;;;3.60;2.30;;;;;;;23.36;31.06;102837.13;104297;1311;62320;-80
2022/02/13 06:28:28;;;;;;;3.40;2.30;;;;;;;23.36;31.04;102844.31;104362;1310;62245;-88
2022/02/13 06:31:20;;;;;;;3.10;2.20;;;;;;;23.35;30.89;102838.23;104288;1311;74113;-83
2022/02/13 06:34:12;;;;;;;3.70;2.20;;;;;;;23.36;31.12;102836.38;104268;1311;76906;-81
2022/02/13 06:36:58;;;;;;;3.90;2.40;;;;;;;23.36;30.92;102836.73;104323;1311;62879;-79
2022/02/13 06:39:34;;;;;;;3.70;2.20;;;;;;;23.36;30.93;102840.33;104255;1311;61972;-81
2022/02/13 06:42:28;;;;;;;3.80;2.30;;;;;;;23.36;30.92;102840.70;104328;1311;73556;-82
2022/02/13 06:44:56;;;;;;;5.40;2.30;;;;;;;23.37;30.92;102841.39;104335;1311;75878;-81
2022/02/13 06:47:24;;;;;;;3.80;2.30;;;;;;;23.36;31.04;102841.94;104276;1311;62128;-81
2022/02/13 06:50:02;;;;;;;3.70;2.30;;;;;;;23.36;30.95;102840.67;104359;1311;62352;-84
2022/02/13 06:52:41;;;;;;;3.80;2.40;;;;;;;23.36;30.97;102836.73;104295;1311;72983;-81
2022/02/13 06:55:19;;;;;;;3.90;2.20;;;;;;;23.36;31.03;102835.30;104355;1311;75636;-82
2022/02/13 06:58:16;;;;;;;3.70;2.10;;;;;;;23.36;30.90;102841.95;103711;1319;62088;-82
2022/02/13 07:01:01;;;;;;;3.90;2.40;;;;;;;23.36;30.96;102838.71;103491;1319;62173;-82
2022/02/13 07:03:29;;;;;;;4.10;2.60;;;;;;;23.36;30.92;102833.34;103523;1319;72887;-83
2022/02/13 07:06:04;;;;;;;3.70;2.30;;;;;;;23.36;30.86;102833.69;103503;1319;76591;-84
2022/02/13 07:08:44;;;;;;;4.20;2.40;;;;;;;23.36;30.82;102838.72;103513;1318;62029;-82
2022/02/13 07:11:18;;;;;;;3.60;2.50;;;;;;;23.36;30.94;102839.25;103813;1319;62186;-81
2022/02/13 07:14:04;;;;;;;3.60;2.40;;;;;;;23.36;30.93;102831.55;103550;1319;74169;-80
2022/02/13 07:16:33;;;;;;;4.00;2.30;;;;;;;23.36;30.87;102836.40;103447;1319;75551;-82
2022/02/13 07:19:02;;;;;;;;;;;;;;;23.36;30.87;102838.19;103415;1319;61851;-80
2022/02/13 07:21:33;;;;;;;3.70;2.20;;;;;;;23.33;31.00;102842.27;103397;1320;62140;-83
2022/02/13 07:24:03;;;;;;;3.80;2.20;;;;;;;23.35;31.02;102835.02;103491;1319;72819;-79
2022/02/13 07:26:49;;;;;;;4.20;2.50;;;;;;;23.35;30.84;102830.70;103352;1320;75509;-82
2022/02/13 07:29:24;;;;;;;3.80;2.50;;;;;;;23.34;30.82;102830.54;103445;1319;62230;-84
2022/02/13 07:32:01;;;;;;;3.80;2.50;;;;;;;23.35;31.04;102827.48;103398;1320;62024;-83
2022/02/13 07:34:37;;;;;;;5.00;2.60;;;;;;;23.34;30.84;102824.42;103276;1320;71767;-82
2022/02/13 07:37:09;;;;;;;4.00;2.50;;;;;;;23.35;30.93;102825.14;104286;1311;76553;-82
2022/02/13 07:39:55;;;;;;;;;;;;;;;;;;;;;
2022/02/13 07:42:30;;;;;;;3.50;2.30;;;;;;;23.34;30.97;102817.42;104301;1311;62086;-82
2022/02/13 07:45:16;;;;;;;3.60;2.40;;;;;;;23.34;30.76;102815.48;104354;1311;73745;-83
2022/02/13 07:47:42;;;;;;;4.10;2.40;;;;;;;23.35;31.00;102817.41;104413;1307;75468;-83
2022/02/13 07:50:13;;;;;;;4.00;2.30;;;;;;;23.35;30.94;102817.39;104445;1307;62296;-81
2022/02/13 07:52:39;;;;;;;4.20;2.10;;;;;;;23.35;30.94;102809.83;104681;1306;61888;-84
2022/02/13 07:55:17;;;;;;;3.80;2.60;;;;;;;23.36;30.97;102814.48;104613;1306;72669;-84
2022/02/13 07:57:45;;;;;;;4.10;2.30;;;;;;;23.35;30.97;102807.88;104544;1307;75557;-83
2022/02/13 08:00:31;;;;;;;4.40;2.50;;;;;;;23.35;30.90;102804.25;104678;1306;61992;-82
2022/02/13 08:03:25;;;;;;;4.30;2.30;;;;;;;23.35;30.82;102805.70;104591;1307;61998;-83
2022/02/13 08:05:53;;;;;;;4.50;2.40;;;;;;;23.36;30.92;102809.27;104661;1306;74063;-82
2022/02/13 08:08:39;;;;;;;4.00;2.50;;;;;;;23.36;31.00;102806.73;104638;1304;75679;-83
2022/02/13 08:11:08;;;;;;;3.90;2.20;;;;;;;23.36;30.98;102803.66;104534;1308;62323;-81
2022/02/13 08:13:34;;;;;;;4.20;2.40;;;;;;;23.36;31.01;102798.81;104553;1306;62234;-83
2022/02/13 08:16:09;;;;;;;4.10;2.40;;;;;;;23.37;31.03;102801.15;104593;1307;61991;-81
2022/02/13 08:19:04;;;;;;;3.80;2.40;;;;;;;23.37;31.00;102795.92;104483;1306;73242;-85
2022/02/13 08:21:41;;;;;;;4.10;2.50;;;;;;;23.37;31.03;102794.84;104561;1307;62111;-83
2022/02/13 08:24:19;;;;;;;4.70;2.60;;;;;;;23.37;30.92;102795.70;104683;1306;62046;-83
2022/02/13 08:26:52;;;;;;;3.70;2.50;;;;;;;23.38;31.01;102792.48;104535;1307;73862;-87
2022/02/13 08:29:29;;;;;;;4.20;2.70;;;;;;;23.38;31.06;102783.84;104647;1306;76983;-85
2022/02/13 08:32:04;;;;;;;5.00;2.70;;;;;;;23.38;30.88;102786.52;104646;1306;62226;-84
2022/02/13 08:34:36;;;;;;;3.40;2.20;;;;;;;23.38;31.05;102787.20;104548;1308;62155;-85
2022/02/13 08:37:09;;;;;;;4.90;2.60;;;;;;;23.38;30.88;102784.88;104670;1306;72885;-82
2022/02/13 08:39:44;;;;;;;4.20;2.80;;;;;;;23.39;30.85;102781.63;104507;1307;75722;-81
2022/02/13 08:42:31;;;;;;;4.60;2.60;;;;;;;23.39;30.97;102780.35;104674;1306;62045;-83
2022/02/13 08:45:17;;;;;;;3.70;2.40;;;;;;;23.39;30.88;102779.81;104553;1306;62050;-79
2022/02/13 08:48:00;;;;;;;4.10;2.60;;;;;;;23.39;30.93;102776.95;104692;1306;73828;-84
2022/02/13 08:50:32;;;;;;;5.20;2.90;;;;;;;23.39;30.99;102768.84;104621;1306;76565;-79
2022/02/13 08:53:20;;;;;;;;;;;;;;;;;;;;;
2022/02/13 08:55:54;;;;;;;4.50;2.40;;;;;;;23.40;30.88;102773.48;104391;1309;62092;-85
2022/02/13 08:58:40;;;;;;;3.50;2.40;;;;;;;23.41;31.03;102768.75;104414;1309;73007;-81
2022/02/13 09:01:15;;;;;;;4.20;2.70;;;;;;;23.41;30.95;102766.96;104363;1311;74835;-81
2022/02/13 09:03:50;;;;;;;4.00;2.70;;;;;;;23.41;30.88;102764.63;104392;1311;62202;-83
2022/02/13 09:06:16;;;;;;;3.80;2.60;;;;;;;23.41;31.10;102762.84;104412;1309;62004;-83
2022/02/13 09:09:10;;;;;;;4.90;2.90;;;;;;;23.41;30.86;102763.17;104409;1309;72925;-82
2022/02/13 09:11:41;;;;;;;5.30;2.50;;;;;;;23.42;30.98;102758.13;104430;1309;76739;-87
2022/02/13 09:14:18;;;;;;;4.10;2.60;;;;;;;23.42;30.94;102755.40;104334;1310;61991;-85
2022/02/13 09:16:51;;;;;;;3.80;2.20;;;;;;;23.42;31.00;102753.05;104434;1309;62000;-82
2022/02/13 09:19:34;;;;;;;4.30;2.70;;;;;;;23.42;31.08;102748.02;104363;1311;72833;-86
2022/02/13 09:22:09;;;;;;;4.10;2.40;;;;;;;23.43;30.97;102750.14;104422;1309;76751;-79
2022/02/13 09:24:43;;;;;;;4.20;2.60;;;;;;;23.43;30.87;102749.23;104579;1306;62198;-86
2022/02/13 09:27:15;;;;;;;4.90;2.70;;;;;;;23.43;31.11;102742.23;104403;1306;61978;-78
2022/02/13 09:29:44;;;;;;;5.00;2.60;;;;;;;23.43;30.99;102743.13;104661;1306;72680;-81
2022/02/13 09:32:12;;;;;;;3.90;2.70;;;;;;;23.44;31.02;102738.27;104620;1307;76955;-82
2022/02/13 09:34:47;;;;;;;5.00;2.80;;;;;;;23.44;31.10;102733.77;104714;1306;62081;-81
2022/02/13 09:37:15;;;;;;;4.20;2.60;;;;;;;23.44;31.01;102734.65;104627;1307;62108;-83
2022/02/13 09:40:01;;;;;;;5.60;2.60;;;;;;;23.44;31.12;102728.38;104521;1307;72712;-85
2022/02/13 09:42:47;;;;;;;4.70;2.80;;;;;;;23.44;30.90;102727.83;104596;1308;76758;-86
2022/02/13 09:45:15;;;;;;;5.10;2.60;;;;;;;23.44;30.92;102722.79;104537;1307;62064;-80
2022/02/13 09:47:50;;;;;;;4.90;2.70;;;;;;;23.45;30.82;102719.33;104742;1306;62079;-78
2022/02/13 09:50:20;;;;;;;4.40;2.50;;;;;;;23.45;31.00;102714.48;104555;1308;73767;-83
2022/02/13 09:52:57;;;;;;;4.70;2.70;;;;;;;23.45;30.96;102714.50;104541;1306;75611;-82
2022/02/13 09:55:35;;;;;;;4.00;2.40;;;;;;;23.45;30.93;102705.15;104690;1306;61993;-86
2022/02/13 09:58:04;;;;;;;5.10;2.70;;;;;;;23.45;30.96;102698.48;104523;1307;62101;-86
2022/02/13 10:01:02;;;;;;;5.30;2.80;;;;;;;23.45;30.79;102699.36;104683;1306;72901;-82
2022/02/13 10:03:38;;;;;;;4.70;2.80;;;;;;;23.45;30.88;102694.70;104477;1306;76862;-86
2022/02/13 10:06:38;;;;;;;4.10;2.60;;;;;;;23.45;30.88;102693.80;104491;1308;62115;-82
2022/02/13 10:09:10;;;;;;;4.60;2.50;;;;;;;23.45;30.93;102682.86;104338;1311;62057;-85
2022/02/13 10:12:11;;;;;;;4.20;2.60;;;;;;;23.45;30.82;102688.76;104320;1311;74191;-85
2022/02/13 10:14:53;;;;;;;5.40;2.70;;;;;;;23.46;30.87;102679.59;104358;1311;76617;-87
2022/02/13 10:17:31;;;;;;;5.00;2.90;;;;;;;23.46;30.89;102671.29;104338;1311;62004;-82
2022/02/13 10:20:07;;;;;;;4.70;2.80;;;;;;;23.47;30.87;102669.48;103902;1311;394719;-83
2022/02/13 10:22:40;;;;;;;4.20;2.70;;;;;;;23.46;30.95;102661.06;104240;1312;72753;-84
2022/02/13 10:25:34;;;;;;;4.20;2.60;;;;;;;23.47;30.96;102653.83;104210;1312;75682;-80
2022/02/13 10:28:09;;;;;;;4.70;2.70;;;;;;;23.47;30.91;102647.92;104266;1312;61993;-82
2022/02/13 10:31:03;;;;;;;5.20;2.60;;;;;;;23.47;30.83;102643.42;104294;1311;62030;-81
2022/02/13 10:33:55;;;;;;;;;;;;;;;;;;;;;
2022/02/13 10:36:30;;;;;;;4.10;2.70;;;;;;;23.46;30.98;102625.81;104045;1316;76811;-83
2022/02/13 10:39:22;;;;;;;3.80;2.50;;;;;;;23.47;30.85;102618.77;104073;1316;61977;-83
2022/02/13 10:41:57;;;;;;;4.80;2.50;;;;;;;23.48;30.88;102613.51;103927;1316;62165;-83
2022/02/13 10:44:28;;;;;;;3.90;2.40;;;;;;;23.48;30.83;102605.44;103696;1319;73798;-82
2022/02/13 10:47:04;;;;;;;4.70;2.70;;;;;;;23.48;30.74;102606.48;104208;1313;77068;-83
2022/02/13 10:49:52;;;;;;;;;;;;;;;;;;;;;
2022/02/13 10:52:36;;;;;;;4.50;2.50;;;;;;;23.49;30.78;102596.23;104296;1313;62248;-81
2022/02/13 10:55:05;;;;;;;4.40;2.70;;;;;;;23.49;30.88;102588.33;104310;1313;72698;-82
2022/02/13 10:57:37;;;;;;;5.40;2.50;;;;;;;23.50;30.83;102586.67;103860;1317;76518;-80
2022/02/13 11:00:12;;;;;;;4.10;2.60;;;;;;;23.49;30.80;102580.02;103713;1316;62011;-81
2022/02/13 11:03:06;;;;;;;4.70;2.30;;;;;;;23.50;30.93;102577.13;103854;1317;62595;-83
2022/02/13 11:05:54;;;;;;;;;;;;;;;;;;;;;
2022/02/13 11:08:23;;;;;;;4.20;2.60;;;;;;;23.49;30.94;102570.12;103846;1316;75716;-81
2022/02/13 11:11:10;;;;;;;4.60;2.50;;;;;;;23.50;30.96;102563.98;103927;1310;62001;-81
2022/02/13 11:13:44;;;;;;;4.60;2.60;;;;;;;23.50;30.89;102556.09;104355;1311;61989;-83
2022/02/13 11:16:49;;;;;;;5.30;2.70;;;;;;;23.50;31.11;102554.65;104365;1311;73778;-83
2022/02/13 11:19:44;;;;;;;4.00;2.30;;;;;;;23.50;30.84;102551.93;104373;1311;76476;-81
2022/02/13 11:22:19;;;;;;;4.30;2.50;;;;;;;23.51;31.06;102547.41;104314;1311;62142;-87
2022/02/13 11:24:53;;;;;;;4.00;2.40;;;;;;;23.52;31.04;102538.39;104220;1313;62501;-83
2022/02/13 11:27:21;;;;;;;4.50;2.30;;;;;;;23.51;31.01;102531.22;104359;1310;73766;-82
2022/02/13 11:30:05;;;;;;;4.80;2.80;;;;;;;23.52;30.99;102535.50;104297;1311;76634;-86
2022/02/13 11:32:48;;;;;;;5.10;2.40;;;;;;;23.52;30.84;102531.53;104319;1311;63308;-82
2022/02/13 11:35:34;;;;;;;3.80;2.40;;;;;;;23.52;30.93;102523.98;104393;1306;62000;-83
2022/02/13 11:38:20;;;;;;;4.90;2.30;;;;;;;23.52;31.12;102524.33;104538;1307;73681;-82
2022/02/13 11:40:51;;;;;;;4.10;2.50;;;;;;;23.52;31.02;102519.13;104479;1308;77370;-81
2022/02/13 11:43:28;;;;;;;3.80;2.50;;;;;;;23.53;30.93;102512.41;104545;1306;62207;-84
2022/02/13 11:45:56;;;;;;;4.60;2.40;;;;;;;23.53;30.92;102510.27;104473;1308;62007;-89
2022/02/13 11:48:44;;;;;;;3.50;2.30;;;;;;;23.53;31.03;102505.42;104494;1308;73743;-82
2022/02/13 11:51:11;;;;;;;4.40;2.50;;;;;;;23.53;30.99;102506.85;104539;1306;75704;-80
2022/02/13 11:54:00;;;;;;;5.10;2.70;;;;;;;23.54;31.00;102503.05;104605;1305;61974;-84
2022/02/13 11:56:27;;;;;;;3.90;2.60;;;;;;;23.54;31.00;102497.64;104278;1308;62079;-80
2022/02/13 11:58:55;;;;;;;4.60;2.50;;;;;;;23.54;30.94;102491.71;105400;1307;73769;-78
2022/02/13 12:01:36;;;;;;;4.50;2.70;;;;;;;23.55;31.13;102487.36;105400;1305;75482;-78
2022/02/13 12:04:02;;;;;;;3.80;2.50;;;;;;;23.56;30.99;102488.20;104640;1307;62070;-80
2022/02/13 12:06:31;;;;;;;3.90;2.30;;;;;;;23.57;30.89;102478.77;104596;1306;61986;-84
2022/02/13 12:09:00;;;;;;;3.90;2.60;;;;;;;23.58;31.01;102472.06;104345;1307;73041;-79
2022/02/13 12:11:30;;;;;;;;;;;;;;;23.58;31.09;102470.08;104428;1307;76184;-82
2022/02/13 12:14:18;;;;;;;4.10;2.50;;;;;;;23.56;30.93;102467.33;104615;1306;62112;-83
2022/02/13 12:17:13;;;;;;;3.90;2.50;;;;;;;23.57;31.10;102463.30;104442;1306;62079;-83